createdAt,value
2023-06-30T00:01:50.473Z,92.93
2023-06-30T00:04:23.859Z,92.66
2023-06-30T00:06:51.826Z,93.08
2023-06-30T00:09:22.123Z,94.35
2023-06-30T00:11:53.956Z,94.53
2023-06-30T00:14:22.127Z,94.95
2023-06-30T00:16:50.920Z,96.13
2023-06-30T00:19:19.819Z,96.64
2023-06-30T00:21:46.930Z,96.43
2023-06-30T00:24:14.381Z,96.38
2023-06-30T00:26:42.155Z,96.57
2023-06-30T00:29:10.338Z,98.18
2023-06-30T00:31:37.548Z,98.46
2023-06-30T00:34:04.636Z,99.80
2023-06-30T00:36:35.596Z,100.00
2023-06-30T00:39:04.085Z,100.00
2023-06-30T00:41:31.254Z,100.00
2023-06-30T00:43:59.407Z,100.00
2023-06-30T00:46:27.020Z,100.00
2023-06-30T00:48:56.219Z,100.00
2023-06-30T00:51:23.292Z,100.00
2023-06-30T00:53:50.299Z,100.00
2023-06-30T00:56:17.228Z,100.00
2023-06-30T00:58:45.527Z,100.00
2023-06-30T01:01:31.752Z,100.00
2023-06-30T01:04:39.601Z,100.00
2023-06-30T01:07:43.237Z,100.00
2023-06-30T01:10:24.106Z,100.00
2023-06-30T01:12:52.108Z,100.00
2023-06-30T01:15:20.045Z,100.00
2023-06-30T01:17:54.942Z,100.00
2023-06-30T01:20:22.737Z,100.00
2023-06-30T01:23:16.858Z,100.00
2023-06-30T01:25:47.251Z,100.00
2023-06-30T01:28:15.769Z,100.00
2023-06-30T01:30:43.046Z,100.00
2023-06-30T01:33:11.864Z,100.00
2023-06-30T01:35:38.834Z,100.00
2023-06-30T01:38:06.046Z,100.00
2023-06-30T01:40:33.500Z,100.00
2023-06-30T01:43:00.595Z,100.00
2023-06-30T01:45:29.916Z,100.00
2023-06-30T01:47:58.262Z,100.00
2023-06-30T01:50:27.020Z,100.00
2023-06-30T01:52:53.990Z,100.00
2023-06-30T01:55:22.073Z,100.00
2023-06-30T01:57:51.744Z,100.00
2023-06-30T02:00:19.310Z,100.00
2023-06-30T02:02:51.149Z,100.00
2023-06-30T02:05:18.326Z,100.00
2023-06-30T02:07:45.252Z,100.00
2023-06-30T02:10:12.359Z,100.00
2023-06-30T02:12:39.404Z,100.00
2023-06-30T02:15:07.823Z,100.00
2023-06-30T02:17:34.921Z,100.00
2023-06-30T02:20:04.313Z,100.00
2023-06-30T02:22:31.285Z,100.00
2023-06-30T02:24:58.420Z,100.00
2023-06-30T02:27:25.925Z,100.00
2023-06-30T02:29:52.945Z,100.00
2023-06-30T02:32:20.483Z,100.00
2023-06-30T02:34:47.533Z,100.00
2023-06-30T02:37:14.565Z,100.00
2023-06-30T02:39:42.457Z,100.00
2023-06-30T02:42:09.510Z,100.00
2023-06-30T02:44:36.497Z,100.00
2023-06-30T02:47:03.897Z,100.00
2023-06-30T02:49:32.513Z,100.00
2023-06-30T02:52:01.157Z,100.00
2023-06-30T02:54:28.325Z,100.00
2023-06-30T02:56:55.648Z,100.00
2023-06-30T02:59:24.056Z,100.00
2023-06-30T03:01:51.589Z,100.00
2023-06-30T03:04:18.600Z,100.00
2023-06-30T03:06:45.612Z,100.00
2023-06-30T03:09:14.517Z,100.00
2023-06-30T03:11:41.718Z,100.00
2023-06-30T03:14:08.818Z,100.00
2023-06-30T03:16:42.962Z,100.00
2023-06-30T03:19:10.838Z,100.00
2023-06-30T03:21:38.553Z,100.00
2023-06-30T03:24:05.753Z,100.00
2023-06-30T03:26:32.750Z,100.00
2023-06-30T03:29:02.025Z,100.00
2023-06-30T03:31:30.012Z,100.00
2023-06-30T03:33:57.484Z,100.00
2023-06-30T03:36:24.423Z,100.00
2023-06-30T03:38:51.910Z,100.00
2023-06-30T03:41:19.058Z,100.00
2023-06-30T03:43:46.140Z,100.00
2023-06-30T03:46:13.517Z,100.00
2023-06-30T03:48:40.534Z,100.00
2023-06-30T03:51:09.145Z,100.00
2023-06-30T03:53:36.281Z,100.00
2023-06-30T03:56:06.568Z,100.00
2023-06-30T03:58:33.596Z,100.00
2023-06-30T04:01:00.632Z,100.00
2023-06-30T04:03:28.317Z,100.00
2023-06-30T04:05:55.598Z,100.00
2023-06-30T04:08:22.739Z,100.00
2023-06-30T04:10:49.835Z,100.00
2023-06-30T04:13:16.824Z,100.00
2023-06-30T04:15:44.352Z,100.00
2023-06-30T04:18:11.516Z,100.00
2023-06-30T04:20:38.990Z,100.00
2023-06-30T04:23:05.907Z,100.00
2023-06-30T04:25:32.901Z,100.00
2023-06-30T04:27:59.925Z,100.00
2023-06-30T04:30:26.855Z,100.00
2023-06-30T04:32:53.843Z,100.00
2023-06-30T04:35:26.638Z,100.00
2023-06-30T04:37:54.035Z,100.00
2023-06-30T04:40:21.201Z,100.00
2023-06-30T04:42:48.295Z,100.00
2023-06-30T04:45:16.477Z,100.00
2023-06-30T04:47:45.974Z,100.00
2023-06-30T04:50:13.067Z,100.00
2023-06-30T04:52:40.177Z,100.00
2023-06-30T04:55:07.720Z,100.00
2023-06-30T04:57:34.724Z,100.00
2023-06-30T05:00:01.854Z,100.00
2023-06-30T05:02:28.914Z,100.00
2023-06-30T05:04:55.951Z,100.00
2023-06-30T05:07:23.266Z,100.00
2023-06-30T05:09:50.429Z,100.00
2023-06-30T05:12:17.563Z,100.00
2023-06-30T05:14:44.549Z,100.00
2023-06-30T05:17:11.729Z,100.00
2023-06-30T05:19:39.003Z,100.00
2023-06-30T05:22:06.437Z,99.94
2023-06-30T05:24:34.641Z,99.60
2023-06-30T05:27:03.008Z,100.00
2023-06-30T05:29:32.367Z,100.00
2023-06-30T05:31:59.432Z,100.00
2023-06-30T05:34:26.949Z,100.00
2023-06-30T05:36:55.906Z,100.00
2023-06-30T05:39:23.837Z,100.00
2023-06-30T05:41:50.853Z,100.00
2023-06-30T05:44:18.045Z,100.00
2023-06-30T05:46:45.162Z,100.00
2023-06-30T05:49:12.773Z,100.00
2023-06-30T05:51:39.918Z,98.94
2023-06-30T05:54:07.250Z,97.91
2023-06-30T05:56:34.302Z,97.63
2023-06-30T05:59:01.332Z,98.34
2023-06-30T06:01:28.403Z,97.09
2023-06-30T06:03:56.499Z,96.24
2023-06-30T06:06:24.034Z,95.10
2023-06-30T06:08:51.410Z,96.12
2023-06-30T06:11:18.640Z,95.80
2023-06-30T06:13:45.746Z,94.17
2023-06-30T06:16:12.866Z,94.08
2023-06-30T06:18:39.957Z,93.63
2023-06-30T06:21:07.033Z,93.19
2023-06-30T06:23:34.092Z,90.94
2023-06-30T06:26:02.918Z,88.50
2023-06-30T06:28:30.969Z,88.78
2023-06-30T06:30:58.361Z,87.15
2023-06-30T06:33:25.623Z,87.57
2023-06-30T06:35:53.616Z,86.60
2023-06-30T06:38:21.264Z,88.00
2023-06-30T06:40:48.572Z,87.17
2023-06-30T06:43:16.522Z,85.02
2023-06-30T06:45:44.241Z,86.01
2023-06-30T06:48:38.464Z,85.67
2023-06-30T06:51:07.069Z,85.34
2023-06-30T06:53:35.487Z,80.93
2023-06-30T06:56:03.783Z,83.60
2023-06-30T06:58:33.001Z,84.86
2023-06-30T07:01:00.138Z,85.58
2023-06-30T07:03:27.490Z,84.62
2023-06-30T07:05:56.777Z,83.62
2023-06-30T07:08:23.909Z,83.03
2023-06-30T07:10:51.866Z,82.10
2023-06-30T07:13:20.452Z,83.00
2023-06-30T07:15:49.179Z,83.14
2023-06-30T07:18:19.870Z,83.34
2023-06-30T07:20:51.734Z,79.63
2023-06-30T07:23:19.268Z,79.59
2023-06-30T07:25:47.805Z,80.05
2023-06-30T07:28:16.146Z,80.68
2023-06-30T07:30:46.329Z,79.02
2023-06-30T07:33:14.142Z,76.61
2023-06-30T07:35:41.867Z,73.37
2023-06-30T07:38:09.185Z,74.67
2023-06-30T07:43:06.476Z,72.97
2023-06-30T07:45:33.950Z,69.86
2023-06-30T07:48:01.014Z,70.46
2023-06-30T07:50:28.770Z,67.95
2023-06-30T07:52:55.910Z,66.25
2023-06-30T07:57:50.227Z,63.66
2023-06-30T08:00:19.799Z,61.52
2023-06-30T08:02:48.166Z,62.03
2023-06-30T08:05:16.102Z,60.47
2023-06-30T08:07:49.214Z,58.37
2023-06-30T08:10:18.116Z,57.37
2023-06-30T08:12:45.391Z,57.69
2023-06-30T08:15:12.770Z,56.24
2023-06-30T08:17:50.882Z,54.09
2023-06-30T08:20:26.568Z,49.46
2023-06-30T08:22:55.061Z,50.19
2023-06-30T08:25:24.249Z,48.51
2023-06-30T08:27:51.641Z,47.86
2023-06-30T08:30:21.135Z,49.26
2023-06-30T08:32:51.081Z,49.20
2023-06-30T08:35:18.385Z,49.30
2023-06-30T08:37:46.214Z,48.67
2023-06-30T08:40:14.285Z,48.20
2023-06-30T08:42:45.760Z,49.13
2023-06-30T08:45:15.122Z,47.90
2023-06-30T08:47:42.340Z,46.81
2023-06-30T08:50:10.946Z,46.02
2023-06-30T08:52:38.170Z,45.66
2023-06-30T08:55:08.056Z,45.77
2023-06-30T08:57:36.453Z,45.25
2023-06-30T09:00:04.601Z,45.13
2023-06-30T09:02:31.981Z,44.86
2023-06-30T09:05:00.012Z,44.24
2023-06-30T09:07:27.667Z,44.87
2023-06-30T09:10:03.502Z,44.90
2023-06-30T09:12:30.847Z,44.34
2023-06-30T09:15:02.971Z,43.66
2023-06-30T09:17:31.902Z,42.24
2023-06-30T09:19:58.887Z,42.44
2023-06-30T09:22:53.719Z,42.49
2023-06-30T09:25:43.450Z,41.77
2023-06-30T09:28:13.553Z,42.56
2023-06-30T09:30:44.509Z,41.55
2023-06-30T09:33:14.528Z,41.01
2023-06-30T09:35:47.061Z,41.70
2023-06-30T09:38:18.711Z,41.74
2023-06-30T09:40:50.082Z,41.79
2023-06-30T09:43:18.992Z,41.91
2023-06-30T09:45:48.411Z,42.50
2023-06-30T09:48:16.241Z,42.51
2023-06-30T09:50:43.643Z,42.10
2023-06-30T09:53:10.868Z,42.58
2023-06-30T09:55:51.343Z,41.63
2023-06-30T09:58:19.084Z,41.65
2023-06-30T10:00:47.271Z,41.78
2023-06-30T10:03:20.998Z,39.93
2023-06-30T10:05:51.588Z,39.75
2023-06-30T10:08:21.178Z,40.89
2023-06-30T10:10:55.792Z,38.90
2023-06-30T10:13:23.435Z,39.33
2023-06-30T10:15:51.916Z,40.58
2023-06-30T10:18:19.752Z,41.48
2023-06-30T10:20:49.500Z,40.32
2023-06-30T10:23:20.404Z,40.47
2023-06-30T10:25:56.337Z,40.46
2023-06-30T10:28:23.637Z,39.47
2023-06-30T10:30:52.467Z,38.63
2023-06-30T10:33:20.251Z,36.95
2023-06-30T10:35:49.231Z,36.35
2023-06-30T10:38:16.504Z,36.18
2023-06-30T10:40:43.508Z,35.58
2023-06-30T10:43:11.513Z,39.19
2023-06-30T10:46:05.623Z,38.13
2023-06-30T10:48:33.071Z,36.48
2023-06-30T10:51:00.220Z,36.64
2023-06-30T10:53:28.375Z,35.02
2023-06-30T10:55:58.804Z,34.88
2023-06-30T10:58:26.008Z,33.05
2023-06-30T11:01:07.845Z,33.78
2023-06-30T11:04:20.254Z,33.99
2023-06-30T11:06:47.868Z,33.81
2023-06-30T11:09:15.170Z,32.84
2023-06-30T11:11:52.544Z,33.75
2023-06-30T11:14:35.512Z,33.09
2023-06-30T11:17:07.510Z,31.99
2023-06-30T11:19:40.463Z,32.15
2023-06-30T11:22:24.602Z,32.16
2023-06-30T11:24:52.025Z,32.34
2023-06-30T11:27:20.185Z,30.92
2023-06-30T11:29:50.151Z,30.43
2023-06-30T11:32:19.546Z,30.78
2023-06-30T11:34:47.378Z,29.68
2023-06-30T11:37:14.450Z,29.44
2023-06-30T11:39:41.646Z,29.63
2023-06-30T11:42:08.663Z,28.60
2023-06-30T11:44:38.470Z,28.14
2023-06-30T11:47:06.126Z,27.80
2023-06-30T11:49:39.764Z,27.89
2023-06-30T11:52:07.852Z,29.11
2023-06-30T11:54:35.390Z,27.15
2023-06-30T11:57:02.553Z,27.76
2023-06-30T11:59:29.672Z,27.59
2023-06-30T12:01:56.865Z,26.80
2023-06-30T12:04:37.112Z,25.21
2023-06-30T12:07:07.255Z,25.06
2023-06-30T12:09:35.554Z,26.37
2023-06-30T12:12:02.774Z,27.11
2023-06-30T12:14:30.113Z,26.03
2023-06-30T12:16:57.741Z,26.73
2023-06-30T12:19:27.230Z,24.65
2023-06-30T12:22:02.849Z,23.85
2023-06-30T12:24:33.900Z,25.00
2023-06-30T12:27:06.214Z,25.27
2023-06-30T12:29:35.210Z,24.36
2023-06-30T12:32:11.917Z,23.17
2023-06-30T12:34:39.984Z,23.40
2023-06-30T12:37:07.073Z,23.65
2023-06-30T12:39:34.090Z,24.02
2023-06-30T12:42:01.166Z,23.73
2023-06-30T12:44:28.213Z,22.03
2023-06-30T12:47:09.621Z,23.17
2023-06-30T12:49:38.874Z,22.91
2023-06-30T12:52:06.412Z,22.20
2023-06-30T12:54:33.913Z,21.52
2023-06-30T12:57:01.166Z,21.91
2023-06-30T12:59:28.237Z,21.19
2023-06-30T13:01:55.494Z,20.58
2023-06-30T13:04:22.726Z,19.58
2023-06-30T13:06:50.095Z,19.67
2023-06-30T13:09:17.155Z,19.70
2023-06-30T13:11:44.258Z,21.02
2023-06-30T13:14:11.701Z,19.17
2023-06-30T13:16:38.716Z,17.89
2023-06-30T13:19:05.753Z,18.32
2023-06-30T13:21:32.849Z,18.20
2023-06-30T13:24:03.056Z,17.47
2023-06-30T13:26:30.195Z,16.84
2023-06-30T13:28:57.186Z,16.46
2023-06-30T13:31:24.378Z,16.24
2023-06-30T13:33:51.504Z,16.51
2023-06-30T13:36:18.423Z,16.71
2023-06-30T13:38:45.425Z,17.09
2023-06-30T13:41:13.381Z,15.73
2023-06-30T13:43:40.874Z,16.43
2023-06-30T13:46:07.929Z,16.92
2023-06-30T13:48:36.548Z,16.11
2023-06-30T13:51:03.674Z,16.72
2023-06-30T13:53:30.804Z,17.26
2023-06-30T13:55:59.762Z,16.26
2023-06-30T13:58:26.967Z,16.38
2023-06-30T14:00:53.918Z,17.09
2023-06-30T14:03:20.993Z,17.36
2023-06-30T14:05:51.281Z,18.10
2023-06-30T14:08:19.324Z,17.67
2023-06-30T14:10:46.523Z,17.95
2023-06-30T14:13:13.817Z,17.92
2023-06-30T14:15:40.795Z,16.72
2023-06-30T14:18:07.881Z,17.74
2023-06-30T14:20:35.008Z,18.66
2023-06-30T14:23:01.942Z,16.94
2023-06-30T14:25:28.910Z,17.20
2023-06-30T14:27:55.996Z,18.37
2023-06-30T14:30:29.613Z,18.86
2023-06-30T14:32:57.027Z,18.96
2023-06-30T14:35:24.094Z,19.52
2023-06-30T14:37:51.163Z,19.32
2023-06-30T14:40:18.175Z,20.27
2023-06-30T14:42:45.142Z,20.40
2023-06-30T14:45:12.822Z,21.72
2023-06-30T14:47:42.310Z,20.10
2023-06-30T14:50:09.667Z,19.83
2023-06-30T14:52:36.820Z,19.86
2023-06-30T14:55:05.206Z,18.99
2023-06-30T14:57:32.248Z,19.75
2023-06-30T14:59:59.177Z,19.41
2023-06-30T15:02:26.510Z,19.03
2023-06-30T15:04:53.662Z,19.82
2023-06-30T15:07:20.706Z,19.89
2023-06-30T15:09:47.687Z,19.56
2023-06-30T15:12:14.992Z,19.96
2023-06-30T15:14:42.011Z,18.98
2023-06-30T15:17:09.072Z,20.18
2023-06-30T15:19:36.625Z,18.99
2023-06-30T15:22:03.797Z,19.55
2023-06-30T15:24:30.736Z,19.34
2023-06-30T15:26:57.799Z,19.56
2023-06-30T15:29:24.972Z,18.88
2023-06-30T15:31:53.928Z,19.78
2023-06-30T15:34:22.424Z,19.43
2023-06-30T15:36:49.511Z,19.11
2023-06-30T15:39:16.716Z,18.72
2023-06-30T15:41:45.141Z,18.68
2023-06-30T15:44:12.300Z,19.41
2023-06-30T15:46:39.592Z,19.15
2023-06-30T15:49:06.759Z,19.76
2023-06-30T15:51:34.652Z,19.60
2023-06-30T15:54:02.245Z,19.62
2023-06-30T15:56:29.300Z,20.35
2023-06-30T15:58:56.274Z,20.68
2023-06-30T16:01:23.417Z,20.99
2023-06-30T16:03:50.593Z,21.60
2023-06-30T16:06:17.861Z,22.25
2023-06-30T16:08:44.985Z,22.63
2023-06-30T16:11:12.512Z,23.10
2023-06-30T16:13:39.695Z,21.57
2023-06-30T16:16:06.741Z,21.99
2023-06-30T16:18:33.739Z,20.32
2023-06-30T16:21:00.673Z,21.19
2023-06-30T16:23:27.576Z,20.86
2023-06-30T16:25:54.797Z,20.74
2023-06-30T16:28:22.208Z,20.38
2023-06-30T16:30:49.220Z,19.91
2023-06-30T16:33:17.376Z,19.56
2023-06-30T16:35:45.010Z,18.91
2023-06-30T16:38:12.283Z,18.64
2023-06-30T16:40:39.608Z,17.90
2023-06-30T16:43:06.577Z,17.94
2023-06-30T16:45:34.816Z,17.43
2023-06-30T16:48:01.998Z,16.78
2023-06-30T16:50:29.173Z,17.06
2023-06-30T16:52:56.097Z,15.67
2023-06-30T16:55:23.219Z,15.69
2023-06-30T16:57:50.295Z,15.09
2023-06-30T17:00:18.075Z,14.95
2023-06-30T17:02:45.135Z,14.72
2023-06-30T17:05:12.431Z,15.11
2023-06-30T17:07:39.609Z,15.13
2023-06-30T17:10:07.059Z,14.73
2023-06-30T17:12:34.993Z,15.16
2023-06-30T17:15:02.165Z,15.52
2023-06-30T17:17:29.221Z,15.85
2023-06-30T17:19:56.379Z,16.47
2023-06-30T17:22:23.352Z,17.21
2023-06-30T17:24:50.758Z,17.36
2023-06-30T17:27:17.816Z,17.58
2023-06-30T17:29:46.534Z,18.63
2023-06-30T17:32:13.473Z,18.87
2023-06-30T17:34:40.567Z,19.07
2023-06-30T17:37:08.856Z,19.27
2023-06-30T17:39:36.749Z,19.45
2023-06-30T17:42:03.907Z,19.79
2023-06-30T17:44:32.163Z,20.20
2023-06-30T17:46:59.563Z,21.01
2023-06-30T17:49:31.647Z,20.94
2023-06-30T17:52:00.382Z,20.92
2023-06-30T17:54:28.794Z,23.85
2023-06-30T17:56:56.023Z,25.12
2023-06-30T17:59:23.527Z,25.87
2023-06-30T18:01:51.308Z,27.24
2023-06-30T18:04:18.529Z,28.11
2023-06-30T18:07:23.773Z,29.67
2023-06-30T18:09:50.899Z,30.57
2023-06-30T18:12:17.862Z,31.81
2023-06-30T18:14:44.799Z,32.79
2023-06-30T18:17:12.129Z,32.92
2023-06-30T18:19:41.869Z,34.16
2023-06-30T18:22:09.223Z,34.99
2023-06-30T18:24:36.244Z,35.75
2023-06-30T18:27:03.426Z,36.06
2023-06-30T18:29:30.566Z,36.62
2023-06-30T18:32:00.498Z,36.92
2023-06-30T18:34:28.043Z,37.16
2023-06-30T18:36:54.999Z,37.72
2023-06-30T18:39:22.044Z,38.31
2023-06-30T18:41:49.266Z,38.42
2023-06-30T18:44:16.332Z,38.72
2023-06-30T18:46:43.454Z,39.17
2023-06-30T18:49:12.456Z,38.97
2023-06-30T18:51:40.459Z,39.76
2023-06-30T18:54:07.512Z,40.45
2023-06-30T18:56:34.694Z,40.95
2023-06-30T18:59:02.767Z,41.86
2023-06-30T19:01:30.143Z,42.37
2023-06-30T19:03:57.597Z,42.68
2023-06-30T19:06:26.137Z,43.04
2023-06-30T19:08:57.383Z,43.38
2023-06-30T19:11:24.504Z,44.08
2023-06-30T19:13:52.012Z,44.66
2023-06-30T19:16:19.405Z,45.20
2023-06-30T19:18:47.380Z,45.89
2023-06-30T19:21:14.987Z,45.99
2023-06-30T19:23:42.325Z,46.35
2023-06-30T19:26:10.808Z,46.13
2023-06-30T19:28:40.423Z,46.48
2023-06-30T19:31:07.437Z,46.56
2023-06-30T19:33:35.773Z,46.57
2023-06-30T19:36:03.450Z,46.98
2023-06-30T19:38:30.333Z,46.67
2023-06-30T19:40:57.797Z,46.37
2023-06-30T19:43:25.114Z,46.49
2023-06-30T19:45:52.095Z,47.19
2023-06-30T19:48:22.017Z,47.57
2023-06-30T19:50:49.253Z,47.26
2023-06-30T19:53:16.418Z,46.98
2023-06-30T19:55:43.551Z,47.21
2023-06-30T19:58:11.063Z,47.88
2023-06-30T20:00:39.197Z,48.61
2023-06-30T20:03:06.933Z,48.84
2023-06-30T20:05:34.339Z,49.64
2023-06-30T20:08:01.329Z,50.08
2023-06-30T20:10:28.302Z,50.69
2023-06-30T20:12:55.285Z,50.57
2023-06-30T20:15:22.180Z,50.69
2023-06-30T20:17:49.239Z,50.62
2023-06-30T20:20:16.473Z,50.11
2023-06-30T20:22:43.491Z,50.33
2023-06-30T20:25:11.240Z,49.54
2023-06-30T20:27:39.701Z,49.98
2023-06-30T20:30:09.156Z,50.85
2023-06-30T20:32:36.286Z,53.82
2023-06-30T20:35:03.386Z,53.70
2023-06-30T20:37:30.393Z,54.86
2023-06-30T20:39:57.669Z,57.10
2023-06-30T20:42:24.848Z,59.52
2023-06-30T20:44:51.741Z,59.46
2023-06-30T20:47:19.104Z,60.69
2023-06-30T20:49:46.359Z,60.01
2023-06-30T20:52:13.280Z,59.86
2023-06-30T20:54:40.428Z,60.98
2023-06-30T20:57:07.839Z,60.58
2023-06-30T20:59:34.775Z,61.36
2023-06-30T21:02:02.710Z,61.25
2023-06-30T21:04:29.986Z,60.48
2023-06-30T21:06:57.043Z,60.22
2023-06-30T21:09:23.988Z,60.91
2023-06-30T21:11:51.201Z,60.49
2023-06-30T21:14:21.514Z,61.98
2023-06-30T21:16:49.215Z,62.56
2023-06-30T21:19:16.963Z,62.38
2023-06-30T21:21:44.067Z,62.37
2023-06-30T21:24:11.567Z,61.54
2023-06-30T21:26:39.339Z,61.87
2023-06-30T21:29:06.538Z,62.35
2023-06-30T21:31:33.612Z,63.65
2023-06-30T21:34:00.763Z,65.03
2023-06-30T21:36:27.976Z,67.62
2023-06-30T21:38:55.044Z,69.50
2023-06-30T21:41:22.972Z,70.60
2023-06-30T21:43:49.971Z,72.27
2023-06-30T21:46:17.789Z,73.22
2023-06-30T21:48:44.843Z,73.60
2023-06-30T21:51:11.893Z,73.69
2023-06-30T21:53:38.994Z,73.81
2023-06-30T21:56:06.068Z,74.84
2023-06-30T21:58:33.367Z,75.05
2023-06-30T22:01:01.254Z,76.34
2023-06-30T22:03:28.807Z,76.11
2023-06-30T22:05:57.164Z,75.27
2023-06-30T22:08:27.249Z,74.93
2023-06-30T22:10:56.842Z,75.47
2023-06-30T22:13:23.797Z,75.35
2023-06-30T22:15:50.788Z,74.52
2023-06-30T22:18:17.893Z,73.68
2023-06-30T22:20:44.861Z,72.80
2023-06-30T22:23:11.993Z,71.78
2023-06-30T22:25:40.752Z,70.46
2023-06-30T22:28:07.893Z,69.77
2023-06-30T22:30:34.837Z,69.10
2023-06-30T22:33:01.995Z,68.95
2023-06-30T22:35:29.141Z,69.01
2023-06-30T22:37:56.185Z,69.74
2023-06-30T22:40:23.362Z,70.15
2023-06-30T22:42:50.377Z,72.03
2023-06-30T22:45:17.382Z,75.47
2023-06-30T22:47:45.034Z,78.43
2023-06-30T22:50:12.142Z,79.53
2023-06-30T22:52:42.129Z,79.18
2023-06-30T22:55:09.913Z,78.57
2023-06-30T22:57:37.196Z,78.14
2023-06-30T23:00:09.552Z,77.71
2023-06-30T23:02:37.205Z,78.91
2023-06-30T23:05:05.345Z,78.94
2023-06-30T23:07:33.271Z,80.04
2023-06-30T23:10:00.306Z,81.39
2023-06-30T23:12:27.724Z,82.83
2023-06-30T23:14:55.238Z,82.79
2023-06-30T23:17:26.402Z,81.76
2023-06-30T23:19:53.967Z,81.04
2023-06-30T23:22:21.085Z,81.68
2023-06-30T23:24:49.755Z,81.07
2023-06-30T23:27:18.324Z,79.96
2023-06-30T23:29:50.405Z,79.25
2023-06-30T23:32:21.273Z,78.97
2023-06-30T23:34:49.019Z,78.32
2023-06-30T23:37:19.989Z,78.93
2023-06-30T23:39:51.668Z,79.15
2023-06-30T23:42:19.107Z,79.01
2023-06-30T23:44:46.132Z,78.87
2023-06-30T23:47:15.606Z,78.71
2023-06-30T23:49:42.848Z,78.82
2023-06-30T23:52:10.306Z,78.66
2023-06-30T23:54:37.289Z,78.56
2023-06-30T23:57:05.165Z,78.76
2023-06-30T23:59:32.075Z,79.17
